Terminal Aerodrome Forecast
Issued by NWS Sioux Falls, SD

Home | Current Version | Previous Version | Graphics & Text | Print | Product List | Glossary On
Versions: 1 2 3 4 5 6 7 8 9 10 11 12 13 14 15 16 17 18 19 20 21 22 23
807
FTUS43 KFSD 220635 AAB
TAFFSD
TAF AMD
KFSD 220635Z 2207/2306 VRB03KT 3SM BR FEW002 SCT200
     FM220900 14004KT 1SM BR SCT002 SCT100 BKN200
      TEMPO 2209/2212 1/2SM FG
     FM221300 13005KT P6SM SCT120=

USA.gov is the U.S. government's official web portal to all federal, state and local government web resources and services.